Terminal Aerodrome Forecast
Issued by NWS Charleston, WV

Current Version | Previous Version | Graphics & Text | Print | Product List | Glossary On
Versions: 1 2 3 4 5 6 7 8 9 10 11 12 13 14 15 16 17 18 19 20 21
000
FTUS41 KRLX 191700
TAFCRW
TAF
KCRW 191722Z 1918/2018 19011G18KT P6SM SCT110
     FM200100 21008KT P6SM BKN090
     FM200500 23008KT P6SM BKN030
     FM200800 24007KT 6SM -SHSN OVC020
     FM201100 24006KT P6SM OVC015
     FM201500 25010G18KT P6SM BKN015=

USA.gov is the U.S. government's official web portal to all federal, state and local government web resources and services.